sensor_id;sensor_type;location;lat;lon;timestamp;temperature;humidity
21312;DHT22;18076;52.154;10.570;2023-12-20T00:02:23;6.30;99.90
21312;DHT22;18076;52.154;10.570;2023-12-20T00:05:02;6.30;99.90
21312;DHT22;18076;52.154;10.570;2023-12-20T00:07:34;6.30;99.90
21312;DHT22;18076;52.154;10.570;2023-12-20T00:10:06;6.30;99.90
21312;DHT22;18076;52.154;10.570;2023-12-20T00:12:48;6.30;99.90
21312;DHT22;18076;52.154;10.570;2023-12-20T00:15:20;6.20;99.90
21312;DHT22;18076;52.154;10.570;2023-12-20T00:17:49;6.30;99.90
21312;DHT22;18076;52.154;10.570;2023-12-20T00:20:24;6.30;99.90
21312;DHT22;18076;52.154;10.570;2023-12-20T00:23:11;6.30;99.90
21312;DHT22;18076;52.154;10.570;2023-12-20T00:25:51;6.30;99.90
21312;DHT22;18076;52.154;10.570;2023-12-20T00:28:17;6.30;99.90
21312;DHT22;18076;52.154;10.570;2023-12-20T00:30:48;6.30;99.90
21312;DHT22;18076;52.154;10.570;2023-12-20T00:33:14;6.30;99.90
21312;DHT22;18076;52.154;10.570;2023-12-20T00:35:39;6.30;99.90
21312;DHT22;18076;52.154;10.570;2023-12-20T00:38:22;6.30;99.90
21312;DHT22;18076;52.154;10.570;2023-12-20T00:40:54;6.30;99.90
21312;DHT22;18076;52.154;10.570;2023-12-20T00:43:23;6.30;99.90
21312;DHT22;18076;52.154;10.570;2023-12-20T00:45:48;6.30;99.90
21312;DHT22;18076;52.154;10.570;2023-12-20T00:48:18;6.30;99.90
21312;DHT22;18076;52.154;10.570;2023-12-20T00:50:57;6.30;99.90
21312;DHT22;18076;52.154;10.570;2023-12-20T00:53:22;6.40;99.90
21312;DHT22;18076;52.154;10.570;2023-12-20T00:55:48;6.30;99.90
21312;DHT22;18076;52.154;10.570;2023-12-20T00:58:14;6.40;99.90
21312;DHT22;18076;52.154;10.570;2023-12-20T01:00:40;6.40;99.90
21312;DHT22;18076;52.154;10.570;2023-12-20T01:03:10;6.40;99.90
21312;DHT22;18076;52.154;10.570;2023-12-20T01:05:36;6.40;99.90
21312;DHT22;18076;52.154;10.570;2023-12-20T01:08:07;6.50;99.90
21312;DHT22;18076;52.154;10.570;2023-12-20T01:10:46;6.40;99.90
21312;DHT22;18076;52.154;10.570;2023-12-20T01:13:13;6.50;99.90
21312;DHT22;18076;52.154;10.570;2023-12-20T01:15:39;6.50;99.90
21312;DHT22;18076;52.154;10.570;2023-12-20T01:18:07;6.50;99.90
21312;DHT22;18076;52.154;10.570;2023-12-20T01:20:34;6.40;99.90
21312;DHT22;18076;52.154;10.570;2023-12-20T01:23:00;6.50;99.90
21312;DHT22;18076;52.154;10.570;2023-12-20T01:25:25;6.50;99.90
21312;DHT22;18076;52.154;10.570;2023-12-20T01:27:51;6.50;99.90
21312;DHT22;18076;52.154;10.570;2023-12-20T01:30:21;6.50;99.90
21312;DHT22;18076;52.154;10.570;2023-12-20T01:32:56;6.50;99.90
21312;DHT22;18076;52.154;10.570;2023-12-20T01:35:51;6.50;99.90
21312;DHT22;18076;52.154;10.570;2023-12-20T01:38:29;6.50;99.90
21312;DHT22;18076;52.154;10.570;2023-12-20T01:40:54;6.50;99.90
21312;DHT22;18076;52.154;10.570;2023-12-20T01:43:29;6.50;99.90
21312;DHT22;18076;52.154;10.570;2023-12-20T01:45:55;6.50;99.90
21312;DHT22;18076;52.154;10.570;2023-12-20T01:48:30;6.50;99.90
21312;DHT22;18076;52.154;10.570;2023-12-20T01:51:01;6.50;99.90
21312;DHT22;18076;52.154;10.570;2023-12-20T01:53:34;6.50;99.90
21312;DHT22;18076;52.154;10.570;2023-12-20T01:56:07;6.50;99.90
21312;DHT22;18076;52.154;10.570;2023-12-20T01:58:33;6.50;99.90
21312;DHT22;18076;52.154;10.570;2023-12-20T02:01:01;6.50;99.90
21312;DHT22;18076;52.154;10.570;2023-12-20T02:03:27;6.50;99.90
21312;DHT22;18076;52.154;10.570;2023-12-20T02:05:53;6.50;99.90
21312;DHT22;18076;52.154;10.570;2023-12-20T02:08:18;6.40;99.90
21312;DHT22;18076;52.154;10.570;2023-12-20T02:11:04;6.40;99.90
21312;DHT22;18076;52.154;10.570;2023-12-20T02:13:32;6.40;99.90
21312;DHT22;18076;52.154;10.570;2023-12-20T02:15:58;6.30;99.90
21312;DHT22;18076;52.154;10.570;2023-12-20T02:18:24;6.40;99.90
21312;DHT22;18076;52.154;10.570;2023-12-20T02:20:52;6.30;99.90
21312;DHT22;18076;52.154;10.570;2023-12-20T02:23:21;6.30;99.90
21312;DHT22;18076;52.154;10.570;2023-12-20T02:25:56;6.30;99.90
21312;DHT22;18076;52.154;10.570;2023-12-20T02:28:22;6.30;99.90
21312;DHT22;18076;52.154;10.570;2023-12-20T02:30:51;6.20;99.90
21312;DHT22;18076;52.154;10.570;2023-12-20T02:33:17;6.20;99.90
21312;DHT22;18076;52.154;10.570;2023-12-20T02:35:43;6.20;99.90
21312;DHT22;18076;52.154;10.570;2023-12-20T02:38:12;6.10;99.90
21312;DHT22;18076;52.154;10.570;2023-12-20T02:40:37;6.10;99.90
21312;DHT22;18076;52.154;10.570;2023-12-20T02:43:03;6.10;99.90
21312;DHT22;18076;52.154;10.570;2023-12-20T02:45:29;6.00;99.90
21312;DHT22;18076;52.154;10.570;2023-12-20T02:47:55;6.10;99.90
21312;DHT22;18076;52.154;10.570;2023-12-20T02:50:23;6.00;99.90
21312;DHT22;18076;52.154;10.570;2023-12-20T02:53:02;6.00;99.90
21312;DHT22;18076;52.154;10.570;2023-12-20T02:55:30;6.00;99.90
21312;DHT22;18076;52.154;10.570;2023-12-20T02:57:56;5.90;99.90
21312;DHT22;18076;52.154;10.570;2023-12-20T03:00:29;5.90;99.90
21312;DHT22;18076;52.154;10.570;2023-12-20T03:03:04;5.90;99.90
21312;DHT22;18076;52.154;10.570;2023-12-20T03:05:36;5.80;99.90
21312;DHT22;18076;52.154;10.570;2023-12-20T03:08:09;5.80;99.90
21312;DHT22;18076;52.154;10.570;2023-12-20T03:10:44;5.80;99.90
21312;DHT22;18076;52.154;10.570;2023-12-20T03:13:10;5.80;99.90
21312;DHT22;18076;52.154;10.570;2023-12-20T03:15:41;5.80;99.90
21312;DHT22;18076;52.154;10.570;2023-12-20T03:18:06;5.90;99.90
21312;DHT22;18076;52.154;10.570;2023-12-20T03:20:33;5.80;99.90
21312;DHT22;18076;52.154;10.570;2023-12-20T03:23:10;5.80;99.90
21312;DHT22;18076;52.154;10.570;2023-12-20T03:25:46;5.80;99.90
21312;DHT22;18076;52.154;10.570;2023-12-20T03:28:14;5.80;99.90
21312;DHT22;18076;52.154;10.570;2023-12-20T03:30:41;5.80;99.90
21312;DHT22;18076;52.154;10.570;2023-12-20T03:33:06;5.70;99.90
21312;DHT22;18076;52.154;10.570;2023-12-20T03:35:32;5.70;99.90
21312;DHT22;18076;52.154;10.570;2023-12-20T03:38:01;5.60;99.90
21312;DHT22;18076;52.154;10.570;2023-12-20T03:40:27;5.60;99.90
21312;DHT22;18076;52.154;10.570;2023-12-20T03:42:57;5.60;99.90
21312;DHT22;18076;52.154;10.570;2023-12-20T03:45:29;5.50;99.90
21312;DHT22;18076;52.154;10.570;2023-12-20T03:47:55;5.50;99.90
21312;DHT22;18076;52.154;10.570;2023-12-20T03:50:23;5.60;99.90
21312;DHT22;18076;52.154;10.570;2023-12-20T03:52:53;5.60;99.90
21312;DHT22;18076;52.154;10.570;2023-12-20T03:55:19;5.60;99.90
21312;DHT22;18076;52.154;10.570;2023-12-20T03:57:55;5.60;99.90
21312;DHT22;18076;52.154;10.570;2023-12-20T04:00:23;5.60;99.90
21312;DHT22;18076;52.154;10.570;2023-12-20T04:02:50;5.50;99.90
21312;DHT22;18076;52.154;10.570;2023-12-20T04:05:38;5.50;99.90
21312;DHT22;18076;52.154;10.570;2023-12-20T04:08:03;5.40;99.90
21312;DHT22;18076;52.154;10.570;2023-12-20T04:10:37;5.40;99.90
21312;DHT22;18076;52.154;10.570;2023-12-20T04:13:10;5.40;99.90
21312;DHT22;18076;52.154;10.570;2023-12-20T04:15:45;5.40;99.90
21312;DHT22;18076;52.154;10.570;2023-12-20T04:18:10;5.30;99.90
21312;DHT22;18076;52.154;10.570;2023-12-20T04:20:36;5.30;99.90
21312;DHT22;18076;52.154;10.570;2023-12-20T04:23:12;5.30;99.90
21312;DHT22;18076;52.154;10.570;2023-12-20T04:25:40;5.30;99.90
21312;DHT22;18076;52.154;10.570;2023-12-20T04:28:12;5.30;99.90
21312;DHT22;18076;52.154;10.570;2023-12-20T04:30:37;5.20;99.90
21312;DHT22;18076;52.154;10.570;2023-12-20T04:33:04;5.20;99.90
21312;DHT22;18076;52.154;10.570;2023-12-20T04:35:38;5.20;99.90
21312;DHT22;18076;52.154;10.570;2023-12-20T04:38:06;5.20;99.90
21312;DHT22;18076;52.154;10.570;2023-12-20T04:40:35;5.20;99.90
21312;DHT22;18076;52.154;10.570;2023-12-20T04:43:00;5.20;99.90
21312;DHT22;18076;52.154;10.570;2023-12-20T04:45:26;5.20;99.90
21312;DHT22;18076;52.154;10.570;2023-12-20T04:48:05;5.20;99.90
21312;DHT22;18076;52.154;10.570;2023-12-20T04:50:53;5.20;99.90
21312;DHT22;18076;52.154;10.570;2023-12-20T04:53:20;5.20;99.90
21312;DHT22;18076;52.154;10.570;2023-12-20T04:55:50;5.30;99.90
21312;DHT22;18076;52.154;10.570;2023-12-20T04:58:19;5.30;99.90
21312;DHT22;18076;52.154;10.570;2023-12-20T05:00:46;5.30;99.90
21312;DHT22;18076;52.154;10.570;2023-12-20T05:03:12;5.30;99.90
21312;DHT22;18076;52.154;10.570;2023-12-20T05:05:38;5.30;99.90
21312;DHT22;18076;52.154;10.570;2023-12-20T05:08:09;5.30;99.90
21312;DHT22;18076;52.154;10.570;2023-12-20T05:10:38;5.40;99.90
21312;DHT22;18076;52.154;10.570;2023-12-20T05:13:05;5.40;99.90
21312;DHT22;18076;52.154;10.570;2023-12-20T05:15:31;5.50;99.90
21312;DHT22;18076;52.154;10.570;2023-12-20T05:17:56;5.60;99.90
21312;DHT22;18076;52.154;10.570;2023-12-20T05:20:25;5.60;99.90
21312;DHT22;18076;52.154;10.570;2023-12-20T05:22:51;5.60;99.90
21312;DHT22;18076;52.154;10.570;2023-12-20T05:25:34;5.60;99.90
21312;DHT22;18076;52.154;10.570;2023-12-20T05:28:05;5.60;99.90
21312;DHT22;18076;52.154;10.570;2023-12-20T05:30:54;5.60;99.90
21312;DHT22;18076;52.154;10.570;2023-12-20T05:33:23;5.70;99.90
21312;DHT22;18076;52.154;10.570;2023-12-20T05:35:50;5.70;99.90
21312;DHT22;18076;52.154;10.570;2023-12-20T05:38:19;5.70;99.90
21312;DHT22;18076;52.154;10.570;2023-12-20T05:40:52;5.80;99.90
21312;DHT22;18076;52.154;10.570;2023-12-20T05:43:24;5.80;99.90
21312;DHT22;18076;52.154;10.570;2023-12-20T05:45:50;5.80;99.90
21312;DHT22;18076;52.154;10.570;2023-12-20T05:48:20;5.80;99.90
21312;DHT22;18076;52.154;10.570;2023-12-20T05:50:45;5.80;99.90
21312;DHT22;18076;52.154;10.570;2023-12-20T05:53:20;5.90;99.90
21312;DHT22;18076;52.154;10.570;2023-12-20T05:55:50;5.90;99.90
21312;DHT22;18076;52.154;10.570;2023-12-20T05:58:26;5.90;99.90
21312;DHT22;18076;52.154;10.570;2023-12-20T06:00:54;5.90;99.90
21312;DHT22;18076;52.154;10.570;2023-12-20T06:03:36;5.90;99.90
21312;DHT22;18076;52.154;10.570;2023-12-20T06:06:28;5.90;99.90
21312;DHT22;18076;52.154;10.570;2023-12-20T06:08:54;6.00;99.90
21312;DHT22;18076;52.154;10.570;2023-12-20T06:11:23;6.00;99.90
21312;DHT22;18076;52.154;10.570;2023-12-20T06:13:58;6.00;99.90
21312;DHT22;18076;52.154;10.570;2023-12-20T06:16:32;6.10;99.90
21312;DHT22;18076;52.154;10.570;2023-12-20T06:19:02;6.10;99.90
21312;DHT22;18076;52.154;10.570;2023-12-20T06:21:27;6.10;99.90
21312;DHT22;18076;52.154;10.570;2023-12-20T06:23:53;6.10;99.90
21312;DHT22;18076;52.154;10.570;2023-12-20T06:26:25;6.10;99.90
21312;DHT22;18076;52.154;10.570;2023-12-20T06:28:51;6.10;99.90
21312;DHT22;18076;52.154;10.570;2023-12-20T06:31:16;6.20;99.90
21312;DHT22;18076;52.154;10.570;2023-12-20T06:33:42;6.20;99.90
21312;DHT22;18076;52.154;10.570;2023-12-20T06:36:10;6.20;99.90
21312;DHT22;18076;52.154;10.570;2023-12-20T06:38:36;6.20;99.90
21312;DHT22;18076;52.154;10.570;2023-12-20T06:41:05;6.20;99.90
21312;DHT22;18076;52.154;10.570;2023-12-20T06:43:31;6.20;99.90
21312;DHT22;18076;52.154;10.570;2023-12-20T06:45:58;6.20;99.90
21312;DHT22;18076;52.154;10.570;2023-12-20T06:48:23;6.30;99.90
21312;DHT22;18076;52.154;10.570;2023-12-20T06:50:49;6.30;99.90
21312;DHT22;18076;52.154;10.570;2023-12-20T06:53:20;6.20;99.90
21312;DHT22;18076;52.154;10.570;2023-12-20T06:55:50;6.20;99.90
21312;DHT22;18076;52.154;10.570;2023-12-20T06:58:15;6.10;99.90
21312;DHT22;18076;52.154;10.570;2023-12-20T07:00:41;6.00;99.90
21312;DHT22;18076;52.154;10.570;2023-12-20T07:03:11;5.90;99.90
21312;DHT22;18076;52.154;10.570;2023-12-20T07:05:43;5.90;99.90
21312;DHT22;18076;52.154;10.570;2023-12-20T07:08:09;5.80;99.90
21312;DHT22;18076;52.154;10.570;2023-12-20T07:10:41;5.80;99.90
21312;DHT22;18076;52.154;10.570;2023-12-20T07:13:07;5.80;99.90
21312;DHT22;18076;52.154;10.570;2023-12-20T07:15:40;5.80;99.90
21312;DHT22;18076;52.154;10.570;2023-12-20T07:18:05;6.00;99.90
21312;DHT22;18076;52.154;10.570;2023-12-20T07:20:37;6.00;99.90
21312;DHT22;18076;52.154;10.570;2023-12-20T07:23:03;6.00;99.90
21312;DHT22;18076;52.154;10.570;2023-12-20T07:25:28;6.10;99.90
21312;DHT22;18076;52.154;10.570;2023-12-20T07:27:55;6.10;99.90
21312;DHT22;18076;52.154;10.570;2023-12-20T07:30:21;6.20;99.90
21312;DHT22;18076;52.154;10.570;2023-12-20T07:32:46;6.20;99.90
21312;DHT22;18076;52.154;10.570;2023-12-20T07:35:12;6.20;99.90
21312;DHT22;18076;52.154;10.570;2023-12-20T07:37:47;6.10;99.90
21312;DHT22;18076;52.154;10.570;2023-12-20T07:40:12;6.10;99.90
21312;DHT22;18076;52.154;10.570;2023-12-20T07:42:40;6.10;99.90
21312;DHT22;18076;52.154;10.570;2023-12-20T07:45:06;6.10;99.90
21312;DHT22;18076;52.154;10.570;2023-12-20T07:47:32;6.00;99.90
21312;DHT22;18076;52.154;10.570;2023-12-20T07:49:57;6.00;99.90
21312;DHT22;18076;52.154;10.570;2023-12-20T07:52:25;6.00;99.90
21312;DHT22;18076;52.154;10.570;2023-12-20T07:54:51;6.10;99.90
21312;DHT22;18076;52.154;10.570;2023-12-20T07:57:17;6.10;99.90
21312;DHT22;18076;52.154;10.570;2023-12-20T07:59:43;6.20;99.90
21312;DHT22;18076;52.154;10.570;2023-12-20T08:02:11;6.20;99.90
21312;DHT22;18076;52.154;10.570;2023-12-20T08:04:37;6.20;99.90
21312;DHT22;18076;52.154;10.570;2023-12-20T08:07:09;6.30;99.90
21312;DHT22;18076;52.154;10.570;2023-12-20T08:09:38;6.20;99.90
21312;DHT22;18076;52.154;10.570;2023-12-20T08:12:05;6.20;99.90
21312;DHT22;18076;52.154;10.570;2023-12-20T08:14:30;6.20;99.90
21312;DHT22;18076;52.154;10.570;2023-12-20T08:16:56;6.20;99.90
21312;DHT22;18076;52.154;10.570;2023-12-20T08:19:40;6.30;99.90
21312;DHT22;18076;52.154;10.570;2023-12-20T08:22:06;6.40;99.90
21312;DHT22;18076;52.154;10.570;2023-12-20T08:24:32;6.40;99.90
21312;DHT22;18076;52.154;10.570;2023-12-20T08:27:07;6.50;99.90
21312;DHT22;18076;52.154;10.570;2023-12-20T08:29:34;6.50;99.90
21312;DHT22;18076;52.154;10.570;2023-12-20T08:32:01;6.50;99.90
21312;DHT22;18076;52.154;10.570;2023-12-20T08:34:27;6.50;99.90
21312;DHT22;18076;52.154;10.570;2023-12-20T08:36:54;6.70;99.90
21312;DHT22;18076;52.154;10.570;2023-12-20T08:39:20;6.70;99.90
21312;DHT22;18076;52.154;10.570;2023-12-20T08:41:46;6.70;99.90
21312;DHT22;18076;52.154;10.570;2023-12-20T08:44:15;6.70;99.90
21312;DHT22;18076;52.154;10.570;2023-12-20T08:46:40;6.80;99.90
21312;DHT22;18076;52.154;10.570;2023-12-20T08:49:06;6.70;99.90
21312;DHT22;18076;52.154;10.570;2023-12-20T08:51:34;6.80;99.90
21312;DHT22;18076;52.154;10.570;2023-12-20T08:54:13;6.80;99.90
21312;DHT22;18076;52.154;10.570;2023-12-20T08:56:38;6.70;99.90
21312;DHT22;18076;52.154;10.570;2023-12-20T08:59:04;6.70;99.90
21312;DHT22;18076;52.154;10.570;2023-12-20T09:01:29;6.60;99.90
21312;DHT22;18076;52.154;10.570;2023-12-20T09:03:55;6.70;99.90
21312;DHT22;18076;52.154;10.570;2023-12-20T09:06:21;6.90;99.90
21312;DHT22;18076;52.154;10.570;2023-12-20T09:08:48;6.90;99.90
21312;DHT22;18076;52.154;10.570;2023-12-20T09:11:15;6.90;99.90
21312;DHT22;18076;52.154;10.570;2023-12-20T09:13:43;6.80;99.90
21312;DHT22;18076;52.154;10.570;2023-12-20T09:16:09;6.80;99.90
21312;DHT22;18076;52.154;10.570;2023-12-20T09:18:36;6.70;99.90
21312;DHT22;18076;52.154;10.570;2023-12-20T09:21:02;6.60;99.90
21312;DHT22;18076;52.154;10.570;2023-12-20T09:23:27;6.50;99.90
21312;DHT22;18076;52.154;10.570;2023-12-20T09:25:53;6.60;99.90
21312;DHT22;18076;52.154;10.570;2023-12-20T09:28:19;6.60;99.90
21312;DHT22;18076;52.154;10.570;2023-12-20T09:30:48;6.60;99.90
21312;DHT22;18076;52.154;10.570;2023-12-20T09:33:14;6.60;99.90
21312;DHT22;18076;52.154;10.570;2023-12-20T09:35:40;6.70;99.90
21312;DHT22;18076;52.154;10.570;2023-12-20T09:38:06;6.70;99.90
21312;DHT22;18076;52.154;10.570;2023-12-20T09:40:32;6.60;99.90
21312;DHT22;18076;52.154;10.570;2023-12-20T09:43:08;6.70;99.90
21312;DHT22;18076;52.154;10.570;2023-12-20T09:45:36;6.70;99.90
21312;DHT22;18076;52.154;10.570;2023-12-20T09:48:02;6.70;99.90
21312;DHT22;18076;52.154;10.570;2023-12-20T09:50:30;6.70;99.90
21312;DHT22;18076;52.154;10.570;2023-12-20T09:52:57;6.70;99.90
21312;DHT22;18076;52.154;10.570;2023-12-20T09:55:24;6.70;99.90
21312;DHT22;18076;52.154;10.570;2023-12-20T09:57:50;6.70;99.90
21312;DHT22;18076;52.154;10.570;2023-12-20T10:00:16;6.90;99.90
21312;DHT22;18076;52.154;10.570;2023-12-20T10:02:49;7.00;99.90
21312;DHT22;18076;52.154;10.570;2023-12-20T10:05:16;7.30;99.90
21312;DHT22;18076;52.154;10.570;2023-12-20T10:07:42;7.30;99.90
21312;DHT22;18076;52.154;10.570;2023-12-20T10:10:13;7.40;99.90
21312;DHT22;18076;52.154;10.570;2023-12-20T10:12:40;7.40;99.90
21312;DHT22;18076;52.154;10.570;2023-12-20T10:15:06;7.50;99.90
21312;DHT22;18076;52.154;10.570;2023-12-20T10:17:32;7.50;99.90
21312;DHT22;18076;52.154;10.570;2023-12-20T10:20:01;7.60;99.90
21312;DHT22;18076;52.154;10.570;2023-12-20T10:22:28;7.60;99.90
21312;DHT22;18076;52.154;10.570;2023-12-20T10:24:56;7.60;99.90
21312;DHT22;18076;52.154;10.570;2023-12-20T10:27:22;7.60;99.90
21312;DHT22;18076;52.154;10.570;2023-12-20T10:29:48;8.00;99.90
21312;DHT22;18076;52.154;10.570;2023-12-20T10:32:26;8.20;99.90
21312;DHT22;18076;52.154;10.570;2023-12-20T10:34:58;7.90;99.90
21312;DHT22;18076;52.154;10.570;2023-12-20T10:37:25;7.80;99.90
21312;DHT22;18076;52.154;10.570;2023-12-20T10:39:54;7.70;99.90
21312;DHT22;18076;52.154;10.570;2023-12-20T10:42:24;7.50;99.90
21312;DHT22;18076;52.154;10.570;2023-12-20T10:44:51;7.40;99.90
21312;DHT22;18076;52.154;10.570;2023-12-20T10:47:19;7.40;99.90
21312;DHT22;18076;52.154;10.570;2023-12-20T10:49:45;7.30;99.90
21312;DHT22;18076;52.154;10.570;2023-12-20T10:52:12;7.30;99.90
21312;DHT22;18076;52.154;10.570;2023-12-20T10:54:38;7.30;99.90
21312;DHT22;18076;52.154;10.570;2023-12-20T10:57:05;7.20;99.90
21312;DHT22;18076;52.154;10.570;2023-12-20T10:59:31;7.20;99.90
21312;DHT22;18076;52.154;10.570;2023-12-20T11:01:58;7.20;99.90
21312;DHT22;18076;52.154;10.570;2023-12-20T11:10:00;7.00;99.90
21312;DHT22;18076;52.154;10.570;2023-12-20T11:15:02;7.00;99.90
21312;DHT22;18076;52.154;10.570;2023-12-20T11:17:29;7.00;99.90
21312;DHT22;18076;52.154;10.570;2023-12-20T11:22:30;7.00;99.90
21312;DHT22;18076;52.154;10.570;2023-12-20T11:25:30;7.00;99.90
21312;DHT22;18076;52.154;10.570;2023-12-20T11:28:09;7.00;99.90
21312;DHT22;18076;52.154;10.570;2023-12-20T11:30:49;7.00;99.90
21312;DHT22;18076;52.154;10.570;2023-12-20T11:33:16;7.10;99.90
21312;DHT22;18076;52.154;10.570;2023-12-20T11:35:42;7.20;99.90
21312;DHT22;18076;52.154;10.570;2023-12-20T11:38:12;7.30;99.90
21312;DHT22;18076;52.154;10.570;2023-12-20T11:43:40;7.40;99.90
21312;DHT22;18076;52.154;10.570;2023-12-20T11:46:05;7.30;99.90
21312;DHT22;18076;52.154;10.570;2023-12-20T11:48:35;7.30;99.90
21312;DHT22;18076;52.154;10.570;2023-12-20T11:51:10;7.30;99.90
21312;DHT22;18076;52.154;10.570;2023-12-20T11:53:40;7.20;99.90
21312;DHT22;18076;52.154;10.570;2023-12-20T11:56:07;7.20;99.90
21312;DHT22;18076;52.154;10.570;2023-12-20T11:58:33;7.10;99.90
21312;DHT22;18076;52.154;10.570;2023-12-20T12:01:00;7.10;99.90
21312;DHT22;18076;52.154;10.570;2023-12-20T12:03:27;7.10;99.90
21312;DHT22;18076;52.154;10.570;2023-12-20T12:05:53;7.10;99.90
21312;DHT22;18076;52.154;10.570;2023-12-20T12:08:19;7.00;99.90
21312;DHT22;18076;52.154;10.570;2023-12-20T12:10:45;7.00;99.90
21312;DHT22;18076;52.154;10.570;2023-12-20T12:13:11;7.00;99.90
21312;DHT22;18076;52.154;10.570;2023-12-20T12:15:50;6.90;99.90
21312;DHT22;18076;52.154;10.570;2023-12-20T12:18:19;6.90;99.90
21312;DHT22;18076;52.154;10.570;2023-12-20T12:20:45;6.90;99.90
21312;DHT22;18076;52.154;10.570;2023-12-20T12:23:11;6.80;99.90
21312;DHT22;18076;52.154;10.570;2023-12-20T12:25:37;6.70;99.90
21312;DHT22;18076;52.154;10.570;2023-12-20T12:28:03;6.80;99.90
21312;DHT22;18076;52.154;10.570;2023-12-20T12:30:30;6.70;99.90
21312;DHT22;18076;52.154;10.570;2023-12-20T12:32:56;6.70;99.90
21312;DHT22;18076;52.154;10.570;2023-12-20T12:35:22;6.70;99.90
21312;DHT22;18076;52.154;10.570;2023-12-20T12:37:51;6.60;99.90
21312;DHT22;18076;52.154;10.570;2023-12-20T12:40:18;6.50;99.90
21312;DHT22;18076;52.154;10.570;2023-12-20T12:42:44;6.50;99.90
21312;DHT22;18076;52.154;10.570;2023-12-20T12:45:10;6.40;99.90
21312;DHT22;18076;52.154;10.570;2023-12-20T12:47:39;6.40;99.90
21312;DHT22;18076;52.154;10.570;2023-12-20T12:50:06;6.30;99.90
21312;DHT22;18076;52.154;10.570;2023-12-20T12:52:31;6.30;99.90
21312;DHT22;18076;52.154;10.570;2023-12-20T12:54:57;6.30;99.90
21312;DHT22;18076;52.154;10.570;2023-12-20T12:57:22;6.30;99.90
21312;DHT22;18076;52.154;10.570;2023-12-20T12:59:49;6.10;99.90
21312;DHT22;18076;52.154;10.570;2023-12-20T13:02:15;6.00;99.90
21312;DHT22;18076;52.154;10.570;2023-12-20T13:04:41;5.90;99.90
21312;DHT22;18076;52.154;10.570;2023-12-20T13:07:07;5.90;99.90
21312;DHT22;18076;52.154;10.570;2023-12-20T13:09:33;5.80;99.90
21312;DHT22;18076;52.154;10.570;2023-12-20T13:11:58;5.80;99.90
21312;DHT22;18076;52.154;10.570;2023-12-20T13:14:24;5.80;99.90
21312;DHT22;18076;52.154;10.570;2023-12-20T13:16:50;5.80;99.90
21312;DHT22;18076;52.154;10.570;2023-12-20T13:19:16;5.80;99.90
21312;DHT22;18076;52.154;10.570;2023-12-20T13:21:41;5.80;99.90
21312;DHT22;18076;52.154;10.570;2023-12-20T13:24:07;5.70;99.90
21312;DHT22;18076;52.154;10.570;2023-12-20T13:26:32;5.80;99.90
21312;DHT22;18076;52.154;10.570;2023-12-20T13:28:58;5.70;99.90
21312;DHT22;18076;52.154;10.570;2023-12-20T13:31:23;5.80;99.90
21312;DHT22;18076;52.154;10.570;2023-12-20T13:33:49;5.80;99.90
21312;DHT22;18076;52.154;10.570;2023-12-20T13:36:14;5.80;99.90
21312;DHT22;18076;52.154;10.570;2023-12-20T13:38:40;5.80;99.90
21312;DHT22;18076;52.154;10.570;2023-12-20T13:41:06;5.80;99.90
21312;DHT22;18076;52.154;10.570;2023-12-20T13:43:32;5.80;99.90
21312;DHT22;18076;52.154;10.570;2023-12-20T13:45:58;5.80;99.90
21312;DHT22;18076;52.154;10.570;2023-12-20T13:48:24;5.80;99.90
21312;DHT22;18076;52.154;10.570;2023-12-20T13:50:49;5.90;99.90
21312;DHT22;18076;52.154;10.570;2023-12-20T13:53:15;5.90;99.90
21312;DHT22;18076;52.154;10.570;2023-12-20T13:55:40;5.90;99.90
21312;DHT22;18076;52.154;10.570;2023-12-20T13:58:06;5.90;99.90
21312;DHT22;18076;52.154;10.570;2023-12-20T14:00:31;5.90;99.90
21312;DHT22;18076;52.154;10.570;2023-12-20T14:02:57;5.90;99.90
21312;DHT22;18076;52.154;10.570;2023-12-20T14:05:24;5.90;99.90
21312;DHT22;18076;52.154;10.570;2023-12-20T14:07:49;5.90;99.90
21312;DHT22;18076;52.154;10.570;2023-12-20T14:10:15;6.00;99.90
21312;DHT22;18076;52.154;10.570;2023-12-20T14:12:41;6.00;99.90
21312;DHT22;18076;52.154;10.570;2023-12-20T14:15:06;6.00;99.90
21312;DHT22;18076;52.154;10.570;2023-12-20T14:17:39;6.00;99.90
21312;DHT22;18076;52.154;10.570;2023-12-20T14:20:05;6.10;99.90
21312;DHT22;18076;52.154;10.570;2023-12-20T14:22:32;6.10;99.90
21312;DHT22;18076;52.154;10.570;2023-12-20T14:24:57;6.10;99.90
21312;DHT22;18076;52.154;10.570;2023-12-20T14:27:23;6.10;99.90
21312;DHT22;18076;52.154;10.570;2023-12-20T14:29:49;6.10;99.90
21312;DHT22;18076;52.154;10.570;2023-12-20T14:32:15;6.10;99.90
21312;DHT22;18076;52.154;10.570;2023-12-20T14:34:41;6.10;99.90
21312;DHT22;18076;52.154;10.570;2023-12-20T14:37:07;6.10;99.90
21312;DHT22;18076;52.154;10.570;2023-12-20T14:39:32;6.10;99.90
21312;DHT22;18076;52.154;10.570;2023-12-20T14:41:58;6.10;99.90
21312;DHT22;18076;52.154;10.570;2023-12-20T14:44:23;6.10;99.90
21312;DHT22;18076;52.154;10.570;2023-12-20T14:46:50;6.10;99.90
21312;DHT22;18076;52.154;10.570;2023-12-20T14:49:16;6.10;99.90
21312;DHT22;18076;52.154;10.570;2023-12-20T14:51:44;6.10;99.90
21312;DHT22;18076;52.154;10.570;2023-12-20T14:54:10;6.20;99.90
21312;DHT22;18076;52.154;10.570;2023-12-20T14:56:35;6.10;99.90
21312;DHT22;18076;52.154;10.570;2023-12-20T14:59:01;6.10;99.90
21312;DHT22;18076;52.154;10.570;2023-12-20T15:01:26;6.10;99.90
21312;DHT22;18076;52.154;10.570;2023-12-20T15:03:52;6.10;99.90
21312;DHT22;18076;52.154;10.570;2023-12-20T15:06:18;6.20;99.90
21312;DHT22;18076;52.154;10.570;2023-12-20T15:08:45;6.20;99.90
21312;DHT22;18076;52.154;10.570;2023-12-20T15:11:11;6.20;99.90
21312;DHT22;18076;52.154;10.570;2023-12-20T15:13:36;6.10;99.90
21312;DHT22;18076;52.154;10.570;2023-12-20T15:16:02;6.30;99.90
21312;DHT22;18076;52.154;10.570;2023-12-20T15:18:27;6.20;99.90
21312;DHT22;18076;52.154;10.570;2023-12-20T15:20:53;6.30;99.90
21312;DHT22;18076;52.154;10.570;2023-12-20T15:23:18;6.30;99.90
21312;DHT22;18076;52.154;10.570;2023-12-20T15:25:45;6.20;99.90
21312;DHT22;18076;52.154;10.570;2023-12-20T15:28:10;6.30;99.90
21312;DHT22;18076;52.154;10.570;2023-12-20T15:30:36;6.20;99.90
21312;DHT22;18076;52.154;10.570;2023-12-20T15:33:01;6.30;99.90
21312;DHT22;18076;52.154;10.570;2023-12-20T15:35:28;6.30;99.90
21312;DHT22;18076;52.154;10.570;2023-12-20T15:37:54;6.30;99.90
21312;DHT22;18076;52.154;10.570;2023-12-20T15:40:19;6.30;99.90
21312;DHT22;18076;52.154;10.570;2023-12-20T15:42:45;6.30;99.90
21312;DHT22;18076;52.154;10.570;2023-12-20T15:45:10;6.30;99.90
21312;DHT22;18076;52.154;10.570;2023-12-20T15:47:36;6.30;99.90
21312;DHT22;18076;52.154;10.570;2023-12-20T15:50:02;6.30;99.90
21312;DHT22;18076;52.154;10.570;2023-12-20T15:52:28;6.30;99.90